Time;durP1;ratioP1;P1;durP2;ratioP2;P2;SDS_P1;SDS_P2;PMS_P1;PMS_P2;Temp;Humidity;BMP_temperature;BMP_pressure;BME280_temperature;BME280_humidity;BME280_pressure;Samples;Min_cycle;Max_cycle;Signal;HPM_P1;HPM_P2
2022/03/30 00:01:42;;;;;;;;;;;;;;;;;;5088578;28;19916;-90
2022/03/30 00:04:08;;;;;;;;;;;;;;;;;;5073832;28;19973;-89
2022/03/30 00:06:33;;;;;;;;;;;;;;;;;;5089524;28;19951;-90
2022/03/30 00:08:58;;;;;;;;;;;;;;;;;;5089221;28;19959;-90
2022/03/30 00:11:23;;;;;;;;;;;;;;;;;;5073378;28;20015;-90
2022/03/30 00:13:48;;;;;;;;;;;;;;;;;;5089367;28;19963;-90
2022/03/30 00:16:13;;;;;;;;;;;;;;;;;;5073873;28;20350;-90
2022/03/30 00:18:38;;;;;;;;;;;;;;;;;;5089403;28;19913;-89
2022/03/30 00:21:04;;;;;;;;;;;;;;;;;;5088846;28;19908;-90
2022/03/30 00:23:29;;;;;;;;;;;;;;;;;;5089239;28;19944;-89
2022/03/30 00:25:54;;;;;;;;;;;;;;;;;;5073209;28;19908;-89
2022/03/30 00:28:19;;;;;;;;;;;;;;;;;;5089372;28;19915;-90
2022/03/30 00:30:44;;;;;;;;;;;;;;;;;;5089010;28;19975;-89
2022/03/30 00:33:10;;;;;;;;;;;;;;;;;;5089153;28;19915;-89
2022/03/30 00:35:35;;;;;;;;;;;;;;;;;;5088798;28;19908;-89
2022/03/30 00:38:00;;;;;;;;;;;;;;;;;;5089052;28;19908;-89
2022/03/30 00:40:25;;;;;;;;;;;;;;;;;;5088599;28;19912;-90
2022/03/30 00:42:50;;;;;;;;;;;;;;;;;;5088732;28;20276;-90
2022/03/30 00:45:15;;;;;;;;;;;;;;;;;;5088314;28;19912;-89
2022/03/30 00:47:40;;;;;;;;;;;;;;;;;;5073062;28;19923;-90
2022/03/30 00:50:06;;;;;;;;;;;;;;;;;;5088541;28;20310;-89
2022/03/30 00:52:31;;;;;;;;;;;;;;;;;;5088760;28;19916;-90
2022/03/30 00:54:57;;;;;;;;;;;;;;;;;;5088763;28;19908;-89
2022/03/30 00:57:22;;;;;;;;;;;;;;;;;;5054817;28;19942;-89
2022/03/30 00:59:47;;;;;;;;;;;;;;;;;;5054631;28;19932;-89
2022/03/30 01:02:12;;;;;;;;;;;;;;;;;;5054729;28;19935;-88
2022/03/30 01:04:38;;;;;;;;;;;;;;;;;;5054806;28;19916;-89
2022/03/30 01:07:03;;;;;;;;;;;;;;;;;;5054741;28;19908;-89
2022/03/30 01:09:28;;;;;;;;;;;;;;;;;;5054184;28;19916;-89
2022/03/30 01:11:53;;;;;;;;;;;;;;;;;;5072498;28;19979;-89
2022/03/30 01:14:18;;;;;;;;;;;;;;;;;;5054798;28;19908;-89
2022/03/30 01:16:43;;;;;;;;;;;;;;;;;;5054814;28;20015;-89
2022/03/30 01:19:09;;;;;;;;;;;;;;;;;;5054469;28;19908;-89
2022/03/30 01:21:34;;;;;;;;;;;;;;;;;;5054213;28;19962;-89
2022/03/30 01:23:59;;;;;;;;;;;;;;;;;;5054885;28;19913;-89
2022/03/30 01:26:25;;;;;;;;;;;;;;;;;;5072575;28;19962;-89
2022/03/30 01:28:50;;;;;;;;;;;;;;;;;;5054485;28;20000;-89
2022/03/30 01:33:59;;;;;;;;;;;;;;;;;;5072021;28;19934;-89
2022/03/30 01:36:25;;;;;;;;;;;;;;;;;;5054591;28;19908;-89
2022/03/30 01:38:50;;;;;;;;;;;;;;;;;;5072493;28;19923;-89
2022/03/30 01:41:15;;;;;;;;;;;;;;;;;;5072176;28;19954;-89
2022/03/30 01:43:40;;;;;;;;;;;;;;;;;;5054651;28;19952;-90
2022/03/30 01:46:06;;;;;;;;;;;;;;;;;;5054271;28;20010;-90
2022/03/30 01:48:31;;;;;;;;;;;;;;;;;;5072294;28;20333;-90
2022/03/30 01:50:56;;;;;;;;;;;;;;;;;;5053992;28;19954;-90
2022/03/30 01:53:21;;;;;;;;;;;;;;;;;;5054420;28;19955;-90
2022/03/30 01:55:46;;;;;;;;;;;;;;;;;;5054318;28;19915;-89
2022/03/30 01:58:11;;;;;;;;;;;;;;;;;;5054631;28;20390;-90
2022/03/30 02:00:37;;;;;;;;;;;;;;;;;;5054099;28;19908;-90
2022/03/30 02:03:02;;;;;;;;;;;;;;;;;;5054299;28;20269;-90
2022/03/30 02:05:28;;;;;;;;;;;;;;;;;;5054278;28;19923;-89
2022/03/30 02:07:53;;;;;;;;;;;;;;;;;;5072443;28;19954;-89
2022/03/30 02:10:18;;;;;;;;;;;;;;;;;;5071848;28;19913;-90
2022/03/30 02:12:44;;;;;;;;;;;;;;;;;;5054457;28;19908;-89
2022/03/30 02:15:10;;;;;;;;;;;;;;;;;;5071777;28;19908;-90
2022/03/30 02:17:36;;;;;;;;;;;;;;;;;;5072317;28;20326;-90
2022/03/30 02:20:02;;;;;;;;;;;;;;;;;;5054518;28;19961;-90
2022/03/30 02:22:27;;;;;;;;;;;;;;;;;;5054541;28;20384;-90
2022/03/30 02:24:52;;;;;;;;;;;;;;;;;;5056372;28;19924;-90
2022/03/30 02:27:21;;;;;;;;;;;;;;;;;;5058053;28;19969;-89
2022/03/30 02:29:46;;;;;;;;;;;;;;;;;;5057888;28;20330;-90
2022/03/30 02:32:11;;;;;;;;;;;;;;;;;;5057590;28;20280;-89
2022/03/30 02:34:36;;;;;;;;;;;;;;;;;;5075822;28;19908;-89
2022/03/30 02:37:02;;;;;;;;;;;;;;;;;;5057913;28;19916;-90
2022/03/30 02:39:27;;;;;;;;;;;;;;;;;;5057891;28;19909;-90
2022/03/30 02:41:52;;;;;;;;;;;;;;;;;;5057521;28;20278;-89
2022/03/30 02:44:17;;;;;;;;;;;;;;;;;;5057833;28;19995;-90
2022/03/30 02:46:42;;;;;;;;;;;;;;;;;;5057754;28;19920;-90
2022/03/30 02:49:07;;;;;;;;;;;;;;;;;;5075360;28;19908;-90
2022/03/30 02:51:32;;;;;;;;;;;;;;;;;;5057973;28;19944;-90
2022/03/30 02:53:57;;;;;;;;;;;;;;;;;;5057100;28;19944;-90
2022/03/30 02:56:23;;;;;;;;;;;;;;;;;;5056972;28;20295;-90
2022/03/30 02:58:48;;;;;;;;;;;;;;;;;;5057215;28;20360;-90
2022/03/30 03:01:13;;;;;;;;;;;;;;;;;;5057154;28;19909;-90
2022/03/30 03:03:38;;;;;;;;;;;;;;;;;;5057397;28;19908;-89
2022/03/30 03:06:03;;;;;;;;;;;;;;;;;;5057269;28;19909;-90
2022/03/30 03:08:28;;;;;;;;;;;;;;;;;;5057716;28;19912;-90
2022/03/30 03:10:54;;;;;;;;;;;;;;;;;;5056906;28;19912;-90
2022/03/30 03:13:19;;;;;;;;;;;;;;;;;;5057080;28;19955;-90
2022/03/30 03:15:44;;;;;;;;;;;;;;;;;;5056715;28;19912;-89
2022/03/30 03:18:09;;;;;;;;;;;;;;;;;;5056967;28;19908;-89
2022/03/30 03:20:34;;;;;;;;;;;;;;;;;;5074652;28;19909;-89
2022/03/30 03:23:02;;;;;;;;;;;;;;;;;;5057158;28;19908;-89
2022/03/30 03:25:29;;;;;;;;;;;;;;;;;;5056808;28;19912;-89
2022/03/30 03:27:54;;;;;;;;;;;;;;;;;;5056515;28;19908;-89
2022/03/30 03:30:20;;;;;;;;;;;;;;;;;;5056391;28;20283;-89
2022/03/30 03:32:45;;;;;;;;;;;;;;;;;;5056751;28;20007;-89
2022/03/30 03:35:10;;;;;;;;;;;;;;;;;;5073995;28;19912;-89
2022/03/30 03:37:35;;;;;;;;;;;;;;;;;;5056323;28;19912;-89
2022/03/30 03:40:00;;;;;;;;;;;;;;;;;;5056371;28;20028;-90
2022/03/30 03:42:25;;;;;;;;;;;;;;;;;;5074280;28;19908;-90
2022/03/30 03:44:51;;;;;;;;;;;;;;;;;;5056627;28;19913;-89
2022/03/30 03:47:16;;;;;;;;;;;;;;;;;;5056625;28;20004;-89
2022/03/30 03:49:41;;;;;;;;;;;;;;;;;;5055511;28;20331;-89
2022/03/30 03:52:06;;;;;;;;;;;;;;;;;;5056078;28;19916;-89
2022/03/30 03:54:31;;;;;;;;;;;;;;;;;;5056576;28;19908;-90
2022/03/30 03:56:56;;;;;;;;;;;;;;;;;;5056488;28;19999;-89
2022/03/30 03:59:21;;;;;;;;;;;;;;;;;;5074183;28;19909;-90
2022/03/30 04:01:46;;;;;;;;;;;;;;;;;;5056705;28;20276;-90
2022/03/30 04:04:12;;;;;;;;;;;;;;;;;;5056742;28;19916;-90
2022/03/30 04:06:37;;;;;;;;;;;;;;;;;;5056337;28;19928;-90
2022/03/30 04:09:02;;;;;;;;;;;;;;;;;;5055801;28;19912;-89
2022/03/30 04:11:27;;;;;;;;;;;;;;;;;;5056107;28;19915;-89
2022/03/30 04:13:52;;;;;;;;;;;;;;;;;;5055925;28;19913;-89
2022/03/30 04:16:17;;;;;;;;;;;;;;;;;;5073506;28;20367;-89
2022/03/30 04:18:42;;;;;;;;;;;;;;;;;;5055805;28;20105;-89
2022/03/30 04:21:07;;;;;;;;;;;;;;;;;;5055221;28;19913;-89
2022/03/30 04:23:32;;;;;;;;;;;;;;;;;;5055569;28;19909;-90
2022/03/30 04:25:58;;;;;;;;;;;;;;;;;;5073192;28;19913;-89
2022/03/30 04:28:23;;;;;;;;;;;;;;;;;;5073458;28;19917;-89
2022/03/30 04:30:48;;;;;;;;;;;;;;;;;;5055131;28;19962;-89
2022/03/30 04:33:13;;;;;;;;;;;;;;;;;;5073068;28;19912;-89
2022/03/30 04:35:41;;;;;;;;;;;;;;;;;;5055434;28;20267;-89
2022/03/30 04:38:06;;;;;;;;;;;;;;;;;;5055741;28;19991;-90
2022/03/30 04:40:31;;;;;;;;;;;;;;;;;;5055507;28;19967;-90
2022/03/30 04:42:57;;;;;;;;;;;;;;;;;;5055461;28;20004;-90
2022/03/30 04:45:22;;;;;;;;;;;;;;;;;;5055378;28;19985;-90
2022/03/30 04:47:47;;;;;;;;;;;;;;;;;;5054960;28;19917;-89
2022/03/30 04:50:12;;;;;;;;;;;;;;;;;;5055260;28;19912;-90
2022/03/30 04:52:38;;;;;;;;;;;;;;;;;;5055686;28;19916;-90
2022/03/30 04:55:03;;;;;;;;;;;;;;;;;;5055166;28;19908;-90
2022/03/30 04:57:28;;;;;;;;;;;;;;;;;;5055022;28;19909;-90
2022/03/30 04:59:53;;;;;;;;;;;;;;;;;;5054360;28;19913;-89
2022/03/30 05:02:18;;;;;;;;;;;;;;;;;;5055006;28;19913;-89
2022/03/30 05:04:43;;;;;;;;;;;;;;;;;;5055123;28;19912;-89
2022/03/30 05:07:09;;;;;;;;;;;;;;;;;;5054764;28;20387;-89
2022/03/30 05:09:34;;;;;;;;;;;;;;;;;;5054295;28;19909;-89
2022/03/30 05:11:59;;;;;;;;;;;;;;;;;;5054716;28;19909;-89
2022/03/30 05:14:24;;;;;;;;;;;;;;;;;;5072680;28;19909;-89
2022/03/30 05:16:49;;;;;;;;;;;;;;;;;;5054987;28;19994;-90
2022/03/30 05:19:14;;;;;;;;;;;;;;;;;;5055010;28;20356;-89
2022/03/30 05:21:39;;;;;;;;;;;;;;;;;;5054840;28;20010;-89
2022/03/30 05:24:05;;;;;;;;;;;;;;;;;;5054656;28;19995;-89
2022/03/30 05:26:30;;;;;;;;;;;;;;;;;;5054549;28;20263;-89
2022/03/30 05:28:55;;;;;;;;;;;;;;;;;;5054418;28;19909;-89
2022/03/30 05:31:20;;;;;;;;;;;;;;;;;;5054617;28;19978;-89
2022/03/30 05:33:45;;;;;;;;;;;;;;;;;;5054778;28;19954;-89
2022/03/30 05:36:12;;;;;;;;;;;;;;;;;;5054782;28;19912;-89
2022/03/30 05:38:37;;;;;;;;;;;;;;;;;;5054615;28;20131;-89
2022/03/30 05:41:02;;;;;;;;;;;;;;;;;;5053797;28;19909;-89
2022/03/30 05:43:27;;;;;;;;;;;;;;;;;;5054562;28;19915;-89
2022/03/30 05:45:52;;;;;;;;;;;;;;;;;;5054436;28;20369;-89
2022/03/30 05:48:17;;;;;;;;;;;;;;;;;;5054765;28;19912;-89
2022/03/30 05:50:42;;;;;;;;;;;;;;;;;;5054448;28;20471;-90
2022/03/30 05:53:07;;;;;;;;;;;;;;;;;;5072478;28;19958;-90
2022/03/30 05:55:33;;;;;;;;;;;;;;;;;;5055013;28;20019;-90
2022/03/30 05:57:58;;;;;;;;;;;;;;;;;;5054666;28;20047;-90
2022/03/30 06:00:23;;;;;;;;;;;;;;;;;;5056999;28;20283;-90
2022/03/30 06:02:48;;;;;;;;;;;;;;;;;;5058199;28;19909;-90
2022/03/30 06:05:13;;;;;;;;;;;;;;;;;;5058201;28;19912;-89
2022/03/30 06:07:39;;;;;;;;;;;;;;;;;;5057931;28;19916;-89
2022/03/30 06:10:04;;;;;;;;;;;;;;;;;;5058413;28;20264;-89
2022/03/30 06:12:29;;;;;;;;;;;;;;;;;;5057944;28;19958;-89
2022/03/30 06:14:54;;;;;;;;;;;;;;;;;;5057609;28;19908;-89
2022/03/30 06:17:20;;;;;;;;;;;;;;;;;;5077091;28;20360;-88
2022/03/30 06:19:45;;;;;;;;;;;;;;;;;;5063445;28;19919;-89
2022/03/30 06:22:10;;;;;;;;;;;;;;;;;;5076336;28;19919;-87
2022/03/30 06:24:36;;;;;;;;;;;;;;;;;;5075582;28;20002;-87
2022/03/30 06:27:01;;;;;;;;;;;;;;;;;;5110941;28;19961;-87
2022/03/30 06:29:26;;;;;;;;;;;;;;;;;;5078419;28;19958;-87
2022/03/30 06:31:51;;;;;;;;;;;;;;;;;;5070567;28;20011;-87
2022/03/30 06:34:16;;;;;;;;;;;;;;;;;;5096497;28;20413;-88
2022/03/30 06:36:41;;;;;;;;;;;;;;;;;;5076308;28;20636;-88
2022/03/30 06:39:07;;;;;;;;;;;;;;;;;;5075856;28;19912;-88
2022/03/30 06:41:32;;;;;;;;;;;;;;;;;;5060107;28;19939;-95
2022/03/30 06:43:57;;;;;;;;;;;;;;;;;;5069118;28;19916;-87
2022/03/30 06:46:22;;;;;;;;;;;;;;;;;;5099264;28;19928;-88
2022/03/30 06:48:48;;;;;;;;;;;;;;;;;;5091161;28;19920;-88
2022/03/30 06:51:13;;;;;;;;;;;;;;;;;;5075622;28;21555;-88
2022/03/30 06:53:38;;;;;;;;;;;;;;;;;;5098007;28;20371;-87
2022/03/30 06:56:03;;;;;;;;;;;;;;;;;;5074521;28;19916;-85
2022/03/30 06:58:28;;;;;;;;;;;;;;;;;;5077804;28;19912;-85
2022/03/30 07:00:53;;;;;;;;;;;;;;;;;;5072382;28;19908;-87
2022/03/30 07:03:19;;;;;;;;;;;;;;;;;;5064756;28;19912;-83
2022/03/30 07:05:44;;;;;;;;;;;;;;;;;;5077472;28;19916;-84
2022/03/30 07:10:53;;;;;;;;;;;;;;;;;;5092324;28;19937;-86
2022/03/30 07:13:19;;;;;;;;;;;;;;;;;;5076075;28;19912;-85
2022/03/30 07:15:44;;;;;;;;;;;;;;;;;;5076078;28;19912;-86
2022/03/30 07:18:09;;;;;;;;;;;;;;;;;;5066448;28;19947;-86
2022/03/30 07:20:34;;;;;;;;;;;;;;;;;;5076669;28;19961;-85
2022/03/30 07:22:59;;;;;;;;;;;;;;;;;;5070264;28;19990;-86
2022/03/30 07:25:24;;;;;;;;;;;;;;;;;;5067608;28;19916;-86
2022/03/30 07:27:50;;;;;;;;;;;;;;;;;;5068502;28;19963;-87
2022/03/30 07:30:15;;;;;;;;;;;;;;;;;;5082318;28;19958;-86
2022/03/30 07:32:40;;;;;;;;;;;;;;;;;;5079966;28;20356;-86
2022/03/30 07:35:05;;;;;;;;;;;;;;;;;;5065034;28;19912;-86
2022/03/30 07:37:30;;;;;;;;;;;;;;;;;;5075554;28;19908;-87
2022/03/30 07:39:56;;;;;;;;;;;;;;;;;;5096990;28;19912;-86
2022/03/30 07:42:21;;;;;;;;;;;;;;;;;;5070567;28;19916;-86
2022/03/30 07:44:46;;;;;;;;;;;;;;;;;;5063310;28;19920;-87
2022/03/30 07:47:11;;;;;;;;;;;;;;;;;;5062527;28;19920;-86
2022/03/30 07:49:36;;;;;;;;;;;;;;;;;;5073479;28;20329;-86
2022/03/30 07:52:03;;;;;;;;;;;;;;;;;;5074100;28;20025;-87
2022/03/30 07:54:28;;;;;;;;;;;;;;;;;;5063126;28;20287;-86
2022/03/30 07:56:53;;;;;;;;;;;;;;;;;;5070947;28;20364;-85
2022/03/30 07:59:18;;;;;;;;;;;;;;;;;;5095494;28;19912;-84
2022/03/30 08:01:43;;;;;;;;;;;;;;;;;;5092324;28;20336;-81
2022/03/30 08:04:08;;;;;;;;;;;;;;;;;;5094662;28;19912;-84
2022/03/30 08:06:34;;;;;;;;;;;;;;;;;;5094801;28;20324;-85
2022/03/30 08:08:59;;;;;;;;;;;;;;;;;;5076851;28;19908;-84
2022/03/30 08:11:24;;;;;;;;;;;;;;;;;;5076580;28;19942;-85
2022/03/30 08:13:49;;;;;;;;;;;;;;;;;;5082276;28;19912;-88
2022/03/30 08:16:14;;;;;;;;;;;;;;;;;;5090146;28;19916;-88
2022/03/30 08:18:40;;;;;;;;;;;;;;;;;;5071608;28;19912;-87
2022/03/30 08:23:49;;;;;;;;;;;;;;;;;;5081265;28;19919;-87
2022/03/30 08:26:14;;;;;;;;;;;;;;;;;;5074705;28;19920;-87
2022/03/30 08:28:39;;;;;;;;;;;;;;;;;;5084107;28;19938;-87
2022/03/30 08:31:04;;;;;;;;;;;;;;;;;;5068612;28;19912;-87
2022/03/30 08:33:29;;;;;;;;;;;;;;;;;;5074206;28;20701;-87
2022/03/30 08:35:54;;;;;;;;;;;;;;;;;;5073566;28;20274;-87
2022/03/30 08:38:19;;;;;;;;;;;;;;;;;;5088190;28;20375;-87
2022/03/30 08:40:44;;;;;;;;;;;;;;;;;;5072737;28;19909;-87
2022/03/30 08:43:09;;;;;;;;;;;;;;;;;;5087865;28;19912;-87
2022/03/30 08:45:34;;;;;;;;;;;;;;;;;;5088245;28;20272;-87
2022/03/30 08:47:59;;;;;;;;;;;;;;;;;;5087836;28;19916;-88
2022/03/30 08:50:25;;;;;;;;;;;;;;;;;;5087721;28;19980;-88
2022/03/30 08:52:51;;;;;;;;;;;;;;;;;;5087199;28;20412;-87
2022/03/30 08:55:16;;;;;;;;;;;;;;;;;;5072071;28;19999;-87
2022/03/30 08:57:42;;;;;;;;;;;;;;;;;;5087376;28;20011;-88
2022/03/30 09:00:07;;;;;;;;;;;;;;;;;;5071719;28;20376;-87
2022/03/30 09:02:32;;;;;;;;;;;;;;;;;;5087102;28;19908;-87
2022/03/30 09:04:57;;;;;;;;;;;;;;;;;;5087015;28;19912;-88
2022/03/30 09:07:22;;;;;;;;;;;;;;;;;;5086894;28;19912;-87
2022/03/30 09:09:47;;;;;;;;;;;;;;;;;;5071888;28;19916;-87
2022/03/30 09:12:12;;;;;;;;;;;;;;;;;;5087283;28;19923;-87
2022/03/30 09:14:39;;;;;;;;;;;;;;;;;;5087026;28;19912;-87
2022/03/30 09:17:04;;;;;;;;;;;;;;;;;;5071640;28;20065;-87
2022/03/30 09:19:30;;;;;;;;;;;;;;;;;;5087262;28;20403;-87
2022/03/30 09:21:55;;;;;;;;;;;;;;;;;;5086867;28;20356;-87
2022/03/30 09:24:20;;;;;;;;;;;;;;;;;;5086695;28;19912;-87
2022/03/30 09:26:45;;;;;;;;;;;;;;;;;;5087340;28;19912;-87
2022/03/30 09:29:10;;;;;;;;;;;;;;;;;;5086970;28;20023;-87
2022/03/30 09:31:36;;;;;;;;;;;;;;;;;;5086512;28;20006;-87
2022/03/30 09:34:01;;;;;;;;;;;;;;;;;;5085768;28;20310;-87
2022/03/30 09:36:26;;;;;;;;;;;;;;;;;;5087154;28;19916;-87
2022/03/30 09:38:52;;;;;;;;;;;;;;;;;;5086835;28;19917;-89
2022/03/30 09:41:17;;;;;;;;;;;;;;;;;;5071392;28;19909;-87
2022/03/30 09:43:45;;;;;;;;;;;;;;;;;;5070869;28;19956;-87
2022/03/30 09:46:13;;;;;;;;;;;;;;;;;;5022733;28;1812726;-88
2022/03/30 09:48:49;;;;;;;;;;;;;;;;;;5087353;28;19913;-87
2022/03/30 09:51:14;;;;;;;;;;;;;;;;;;5087312;28;19962;-87
2022/03/30 09:53:39;;;;;;;;;;;;;;;;;;5086903;28;19905;-87
2022/03/30 09:56:04;;;;;;;;;;;;;;;;;;5087292;28;19908;-88
2022/03/30 09:58:29;;;;;;;;;;;;;;;;;;5071843;28;19962;-87
2022/03/30 10:00:55;;;;;;;;;;;;;;;;;;5087267;28;19909;-87
2022/03/30 10:03:20;;;;;;;;;;;;;;;;;;5071314;28;19931;-87
2022/03/30 10:05:45;;;;;;;;;;;;;;;;;;5087043;28;19962;-87
2022/03/30 10:08:10;;;;;;;;;;;;;;;;;;5071873;28;19912;-88
2022/03/30 10:10:35;;;;;;;;;;;;;;;;;;5087415;28;20363;-87
2022/03/30 10:13:00;;;;;;;;;;;;;;;;;;5087270;28;19908;-87
2022/03/30 10:15:26;;;;;;;;;;;;;;;;;;5087406;28;19908;-88
2022/03/30 10:17:51;;;;;;;;;;;;;;;;;;5087181;28;19908;-88
2022/03/30 10:20:16;;;;;;;;;;;;;;;;;;5087276;28;19954;-87
2022/03/30 10:22:41;;;;;;;;;;;;;;;;;;5087688;28;20150;-88
2022/03/30 10:25:06;;;;;;;;;;;;;;;;;;5077934;28;20385;-87
2022/03/30 10:27:31;;;;;;;;;;;;;;;;;;5072934;28;19961;-87
2022/03/30 10:29:57;;;;;;;;;;;;;;;;;;5082564;28;19916;-86
2022/03/30 10:32:22;;;;;;;;;;;;;;;;;;5076812;28;20637;-86
2022/03/30 10:34:47;;;;;;;;;;;;;;;;;;5054690;28;19997;-87
2022/03/30 10:37:12;;;;;;;;;;;;;;;;;;5072763;28;19938;-87
2022/03/30 10:39:37;;;;;;;;;;;;;;;;;;5072437;28;19915;-87
2022/03/30 10:42:02;;;;;;;;;;;;;;;;;;5094536;28;19919;-86
2022/03/30 10:44:28;;;;;;;;;;;;;;;;;;5092966;28;19916;-87
2022/03/30 10:46:53;;;;;;;;;;;;;;;;;;5104057;28;20004;-87
2022/03/30 10:49:18;;;;;;;;;;;;;;;;;;5081482;28;20428;-87
2022/03/30 10:51:43;;;;;;;;;;;;;;;;;;5074528;28;19923;-87
2022/03/30 10:54:09;;;;;;;;;;;;;;;;;;5061992;28;19920;-87
2022/03/30 10:56:34;;;;;;;;;;;;;;;;;;5077639;28;19913;-87
2022/03/30 10:58:59;;;;;;;;;;;;;;;;;;5108727;28;19912;-87
2022/03/30 11:01:25;;;;;;;;;;;;;;;;;;5097013;28;19958;-87
2022/03/30 11:03:50;;;;;;;;;;;;;;;;;;5098115;28;19908;-86
2022/03/30 11:06:16;;;;;;;;;;;;;;;;;;5092931;28;19915;-86
2022/03/30 11:08:42;;;;;;;;;;;;;;;;;;5097255;28;19918;-87
2022/03/30 11:11:07;;;;;;;;;;;;;;;;;;5093030;28;20398;-86
2022/03/30 11:13:32;;;;;;;;;;;;;;;;;;5090066;28;20367;-86
2022/03/30 11:15:59;;;;;;;;;;;;;;;;;;5073948;28;19912;-87
2022/03/30 11:18:24;;;;;;;;;;;;;;;;;;5066001;28;19934;-86
2022/03/30 11:20:49;;;;;;;;;;;;;;;;;;5091272;28;20286;-86
2022/03/30 11:23:14;;;;;;;;;;;;;;;;;;5090631;28;19916;-86
2022/03/30 11:25:39;;;;;;;;;;;;;;;;;;5072143;28;19912;-86
2022/03/30 11:28:04;;;;;;;;;;;;;;;;;;5068721;28;19920;-86
2022/03/30 11:30:29;;;;;;;;;;;;;;;;;;5088455;28;19916;-86
2022/03/30 11:32:54;;;;;;;;;;;;;;;;;;5110533;28;19912;-86
2022/03/30 11:35:20;;;;;;;;;;;;;;;;;;5097841;28;19907;-86
2022/03/30 11:37:45;;;;;;;;;;;;;;;;;;5081048;28;19913;-86
2022/03/30 11:40:10;;;;;;;;;;;;;;;;;;5077160;28;19908;-86
2022/03/30 11:42:37;;;;;;;;;;;;;;;;;;5095022;28;20368;-86
2022/03/30 11:45:15;;;;;;;;;;;;;;;;;;5077128;28;19912;-86
2022/03/30 11:47:41;;;;;;;;;;;;;;;;;;5077423;28;19916;-86
2022/03/30 11:50:06;;;;;;;;;;;;;;;;;;5077334;28;19914;-86
2022/03/30 11:52:31;;;;;;;;;;;;;;;;;;5076306;28;20360;-86
2022/03/30 11:54:56;;;;;;;;;;;;;;;;;;5075833;28;19912;-86
2022/03/30 11:57:21;;;;;;;;;;;;;;;;;;5082783;28;20002;-86
2022/03/30 11:59:46;;;;;;;;;;;;;;;;;;5096425;28;20360;-86
2022/03/30 12:02:12;;;;;;;;;;;;;;;;;;5114588;28;19904;-86
2022/03/30 12:04:37;;;;;;;;;;;;;;;;;;5096938;28;19958;-87
2022/03/30 12:07:02;;;;;;;;;;;;;;;;;;5095541;28;19912;-86
2022/03/30 12:09:27;;;;;;;;;;;;;;;;;;5096955;28;20037;-87
2022/03/30 12:11:52;;;;;;;;;;;;;;;;;;5115243;28;19907;-86
2022/03/30 12:14:17;;;;;;;;;;;;;;;;;;5096820;28;19908;-86
2022/03/30 12:16:42;;;;;;;;;;;;;;;;;;5063307;28;19919;-86
2022/03/30 12:19:08;;;;;;;;;;;;;;;;;;5056542;28;19915;-86
2022/03/30 12:21:34;;;;;;;;;;;;;;;;;;5074578;28;20314;-86
2022/03/30 12:24:00;;;;;;;;;;;;;;;;;;5058249;28;19917;-86
2022/03/30 12:26:25;;;;;;;;;;;;;;;;;;5072594;28;19913;-86
2022/03/30 12:28:50;;;;;;;;;;;;;;;;;;5056475;28;19908;-86
2022/03/30 12:31:15;;;;;;;;;;;;;;;;;;5072495;28;20002;-86
2022/03/30 12:33:40;;;;;;;;;;;;;;;;;;5083540;28;19962;-86
2022/03/30 12:36:05;;;;;;;;;;;;;;;;;;5083432;28;20363;-86
2022/03/30 12:38:31;;;;;;;;;;;;;;;;;;5087669;28;19912;-87
2022/03/30 12:40:56;;;;;;;;;;;;;;;;;;5076402;28;19911;-87
2022/03/30 12:43:22;;;;;;;;;;;;;;;;;;5087328;28;19923;-86
2022/03/30 12:45:53;;;;;;;;;;;;;;;;;;5074949;28;20322;-86
2022/03/30 12:48:18;;;;;;;;;;;;;;;;;;5073637;28;19940;-87
2022/03/30 12:50:44;;;;;;;;;;;;;;;;;;5079080;28;20350;-86
2022/03/30 12:53:15;;;;;;;;;;;;;;;;;;5065323;28;20388;-86
2022/03/30 12:55:40;;;;;;;;;;;;;;;;;;5055859;28;19908;-86
2022/03/30 12:58:11;;;;;;;;;;;;;;;;;;5062884;28;19912;-86
2022/03/30 13:00:36;;;;;;;;;;;;;;;;;;5083045;28;19952;-87
2022/03/30 13:03:01;;;;;;;;;;;;;;;;;;5089137;28;19955;-86
2022/03/30 13:05:27;;;;;;;;;;;;;;;;;;5079962;28;19963;-87
2022/03/30 13:07:52;;;;;;;;;;;;;;;;;;5092080;28;19985;-87
2022/03/30 13:10:19;;;;;;;;;;;;;;;;;;5078403;28;20375;-87
2022/03/30 13:12:44;;;;;;;;;;;;;;;;;;5075258;28;19908;-87
2022/03/30 13:15:10;;;;;;;;;;;;;;;;;;5075208;28;19912;-86
2022/03/30 13:17:35;;;;;;;;;;;;;;;;;;5071982;28;20398;-86
2022/03/30 13:20:00;;;;;;;;;;;;;;;;;;5055346;28;19908;-86
2022/03/30 13:22:25;;;;;;;;;;;;;;;;;;5072616;28;19918;-87
2022/03/30 13:24:54;;;;;;;;;;;;;;;;;;5081261;28;19916;-86
2022/03/30 13:27:19;;;;;;;;;;;;;;;;;;5067490;28;20428;-86
2022/03/30 13:29:46;;;;;;;;;;;;;;;;;;5085137;28;19913;-86
2022/03/30 13:32:11;;;;;;;;;;;;;;;;;;5080952;28;20347;-87
2022/03/30 13:34:36;;;;;;;;;;;;;;;;;;5073326;28;20384;-86
2022/03/30 13:37:02;;;;;;;;;;;;;;;;;;5088346;28;20011;-87
2022/03/30 13:39:27;;;;;;;;;;;;;;;;;;5087209;28;19908;-86
2022/03/30 13:41:52;;;;;;;;;;;;;;;;;;5087242;28;20279;-86
2022/03/30 13:44:17;;;;;;;;;;;;;;;;;;5086645;28;20058;-86
2022/03/30 13:46:44;;;;;;;;;;;;;;;;;;5087364;28;20370;-86
2022/03/30 13:49:09;;;;;;;;;;;;;;;;;;5087341;28;20375;-86
2022/03/30 13:51:34;;;;;;;;;;;;;;;;;;5098416;28;19912;-86
2022/03/30 13:53:59;;;;;;;;;;;;;;;;;;5053299;28;20356;-86
2022/03/30 13:56:24;;;;;;;;;;;;;;;;;;5053953;28;20351;-86
2022/03/30 13:58:53;;;;;;;;;;;;;;;;;;5053879;28;20001;-86
2022/03/30 14:01:19;;;;;;;;;;;;;;;;;;5053362;28;19909;-87
2022/03/30 14:03:44;;;;;;;;;;;;;;;;;;5053258;28;20383;-86
2022/03/30 14:06:09;;;;;;;;;;;;;;;;;;5053479;28;20418;-86
2022/03/30 14:08:34;;;;;;;;;;;;;;;;;;5053696;28;20391;-86
2022/03/30 14:10:59;;;;;;;;;;;;;;;;;;5053742;28;19912;-86
2022/03/30 14:13:24;;;;;;;;;;;;;;;;;;5053253;28;19913;-86
2022/03/30 14:15:50;;;;;;;;;;;;;;;;;;5053557;28;19909;-86
2022/03/30 14:18:18;;;;;;;;;;;;;;;;;;5071689;28;19908;-86
2022/03/30 14:20:43;;;;;;;;;;;;;;;;;;5055088;28;19909;-86
2022/03/30 14:23:09;;;;;;;;;;;;;;;;;;5056583;28;20007;-86
2022/03/30 14:25:34;;;;;;;;;;;;;;;;;;5074960;28;20268;-86
2022/03/30 14:27:59;;;;;;;;;;;;;;;;;;5057280;28;19941;-86
2022/03/30 14:30:25;;;;;;;;;;;;;;;;;;5057024;28;19908;-86
2022/03/30 14:32:50;;;;;;;;;;;;;;;;;;5057037;28;19908;-87
2022/03/30 14:35:15;;;;;;;;;;;;;;;;;;5057115;28;20268;-86
2022/03/30 14:37:40;;;;;;;;;;;;;;;;;;5057063;28;20360;-86
2022/03/30 14:40:05;;;;;;;;;;;;;;;;;;5056952;28;20360;-86
2022/03/30 14:42:30;;;;;;;;;;;;;;;;;;5056801;28;19909;-86
2022/03/30 14:44:56;;;;;;;;;;;;;;;;;;5056724;28;19918;-86
2022/03/30 14:47:21;;;;;;;;;;;;;;;;;;5056799;28;19922;-86
2022/03/30 14:49:46;;;;;;;;;;;;;;;;;;5056952;28;20288;-86
2022/03/30 14:52:11;;;;;;;;;;;;;;;;;;5056291;28;19987;-86
2022/03/30 14:54:36;;;;;;;;;;;;;;;;;;5056949;28;19920;-86
2022/03/30 14:57:01;;;;;;;;;;;;;;;;;;5056611;28;19932;-86
2022/03/30 14:59:26;;;;;;;;;;;;;;;;;;5056751;28;20387;-86
2022/03/30 15:01:52;;;;;;;;;;;;;;;;;;5056171;28;20280;-86
2022/03/30 15:04:17;;;;;;;;;;;;;;;;;;5056509;28;20352;-86
2022/03/30 15:06:42;;;;;;;;;;;;;;;;;;5056738;28;19912;-86
2022/03/30 15:09:07;;;;;;;;;;;;;;;;;;5056661;28;20395;-86
2022/03/30 15:11:32;;;;;;;;;;;;;;;;;;5056359;28;19932;-86
2022/03/30 15:13:57;;;;;;;;;;;;;;;;;;5055968;28;20406;-86
2022/03/30 15:16:23;;;;;;;;;;;;;;;;;;5074441;28;19908;-86
2022/03/30 15:18:48;;;;;;;;;;;;;;;;;;5056458;28;19944;-86
2022/03/30 15:21:13;;;;;;;;;;;;;;;;;;5056612;28;19960;-86
2022/03/30 15:23:38;;;;;;;;;;;;;;;;;;5073981;28;20007;-86
2022/03/30 15:26:03;;;;;;;;;;;;;;;;;;5056159;28;19921;-86
2022/03/30 15:28:28;;;;;;;;;;;;;;;;;;5056346;28;20025;-86
2022/03/30 15:30:53;;;;;;;;;;;;;;;;;;5056175;28;19916;-86
2022/03/30 15:33:19;;;;;;;;;;;;;;;;;;5055722;28;19919;-86
2022/03/30 15:35:48;;;;;;;;;;;;;;;;;;5056509;28;19936;-86
2022/03/30 15:38:13;;;;;;;;;;;;;;;;;;5056482;28;20381;-86
2022/03/30 15:40:38;;;;;;;;;;;;;;;;;;5055741;28;20356;-86
2022/03/30 15:43:03;;;;;;;;;;;;;;;;;;5073907;28;19908;-86
2022/03/30 15:45:28;;;;;;;;;;;;;;;;;;5056030;28;19962;-86
2022/03/30 15:47:53;;;;;;;;;;;;;;;;;;5055912;28;19916;-86
2022/03/30 15:50:19;;;;;;;;;;;;;;;;;;5055690;28;19912;-86
2022/03/30 15:52:45;;;;;;;;;;;;;;;;;;5055392;28;19909;-86
2022/03/30 15:55:12;;;;;;;;;;;;;;;;;;5073387;28;19916;-86
2022/03/30 15:57:37;;;;;;;;;;;;;;;;;;5073792;28;19919;-86
2022/03/30 16:00:04;;;;;;;;;;;;;;;;;;5055323;28;20011;-86
2022/03/30 16:02:29;;;;;;;;;;;;;;;;;;5055040;28;20308;-85
2022/03/30 16:04:54;;;;;;;;;;;;;;;;;;5055223;28;20410;-86
2022/03/30 16:07:19;;;;;;;;;;;;;;;;;;5055211;28;19916;-86
2022/03/30 16:09:47;;;;;;;;;;;;;;;;;;5055621;28;19912;-86
2022/03/30 16:12:16;;;;;;;;;;;;;;;;;;5055059;28;19995;-86
2022/03/30 16:14:44;;;;;;;;;;;;;;;;;;5055638;28;19908;-86
2022/03/30 16:17:09;;;;;;;;;;;;;;;;;;5055448;28;19908;-86
2022/03/30 16:19:36;;;;;;;;;;;;;;;;;;5055432;28;19909;-86
2022/03/30 16:22:01;;;;;;;;;;;;;;;;;;5054689;28;19923;-86
2022/03/30 16:24:26;;;;;;;;;;;;;;;;;;5054777;28;20011;-86
2022/03/30 16:26:51;;;;;;;;;;;;;;;;;;5054555;28;19993;-85
2022/03/30 16:29:17;;;;;;;;;;;;;;;;;;5055116;28;19916;-85
2022/03/30 16:31:44;;;;;;;;;;;;;;;;;;5072874;28;20302;-86
2022/03/30 16:34:09;;;;;;;;;;;;;;;;;;5054783;28;19909;-86
2022/03/30 16:36:34;;;;;;;;;;;;;;;;;;5054546;28;19916;-86
2022/03/30 16:38:59;;;;;;;;;;;;;;;;;;5054731;28;19969;-86
2022/03/30 16:41:24;;;;;;;;;;;;;;;;;;5054791;28;19934;-86